createdAt,value
2023-01-11T00:01:53.681Z,98947.66
2023-01-11T00:04:20.584Z,98934.56
2023-01-11T00:06:47.058Z,98945.81
2023-01-11T00:09:13.674Z,98938.41
2023-01-11T00:11:40.091Z,98946.41
2023-01-11T00:14:06.534Z,98938.41
2023-01-11T00:16:33.067Z,98947.84
2023-01-11T00:18:59.463Z,98934.16
2023-01-11T00:21:26.690Z,98925.06
2023-01-11T00:23:53.331Z,98936.19
2023-01-11T00:26:19.720Z,98926.22
2023-01-11T00:28:49.394Z,98921.03
2023-01-11T00:31:17.292Z,98922.56
2023-01-11T00:33:43.866Z,98915.69
2023-01-11T00:36:10.582Z,98907.56
2023-01-11T00:38:53.884Z,98913.94
2023-01-11T00:41:40.839Z,98910.16
2023-01-11T00:44:45.838Z,98903.16
2023-01-11T00:47:35.576Z,98912.00
2023-01-11T00:50:03.008Z,98900.69
2023-01-11T00:52:30.543Z,98912.72
2023-01-11T00:54:56.930Z,98918.28
2023-01-11T00:57:23.411Z,98916.38
2023-01-11T00:59:49.852Z,98923.50
2023-01-11T01:02:16.455Z,98920.13
2023-01-11T01:04:42.927Z,98913.38
2023-01-11T01:07:09.616Z,98908.75
2023-01-11T01:09:36.145Z,98896.25
2023-01-11T01:12:02.941Z,98904.38
2023-01-11T01:14:32.984Z,98903.16
2023-01-11T01:17:02.302Z,98892.75
2023-01-11T01:19:30.918Z,98885.72
2023-01-11T01:21:59.405Z,98894.69
2023-01-11T01:24:30.808Z,98892.50
2023-01-11T01:26:58.264Z,98868.25
2023-01-11T01:29:25.713Z,98882.16
2023-01-11T01:31:52.177Z,98878.44
2023-01-11T01:34:18.597Z,98879.63
2023-01-11T01:36:45.028Z,98883.13
2023-01-11T01:39:12.968Z,98871.19
2023-01-11T01:41:39.804Z,98879.78
2023-01-11T01:44:44.647Z,98877.56
2023-01-11T01:47:11.956Z,98874.06
2023-01-11T01:49:38.651Z,98860.78
2023-01-11T01:52:05.586Z,98853.06
2023-01-11T01:54:36.562Z,98858.66
2023-01-11T01:57:09.914Z,98848.69
2023-01-11T01:59:36.700Z,98855.00
2023-01-11T02:02:04.307Z,98849.28
2023-01-11T02:04:43.078Z,98851.78
2023-01-11T02:07:13.280Z,98840.22
2023-01-11T02:10:09.117Z,98844.56
2023-01-11T02:12:50.983Z,98855.09
2023-01-11T02:15:20.879Z,98847.66
2023-01-11T02:17:47.454Z,98835.44
2023-01-11T02:20:32.671Z,98844.34
2023-01-11T02:23:27.061Z,98846.19
2023-01-11T02:26:12.320Z,98821.72
2023-01-11T02:29:10.526Z,98806.72
2023-01-11T02:31:40.026Z,98815.56
2023-01-11T02:34:34.300Z,98799.84
2023-01-11T02:37:27.552Z,98800.00
2023-01-11T02:40:12.494Z,98792.28
2023-01-11T02:43:11.661Z,98792.97
2023-01-11T02:45:59.189Z,98781.34
2023-01-11T02:48:32.532Z,98774.56
2023-01-11T02:51:26.944Z,98767.69
2023-01-11T02:54:02.625Z,98765.19
2023-01-11T02:56:33.565Z,98767.28
2023-01-11T02:59:01.341Z,98772.50
2023-01-11T03:01:27.824Z,98781.63
2023-01-11T03:03:54.628Z,98771.94
2023-01-11T03:06:26.217Z,98790.06
2023-01-11T03:09:13.732Z,98779.41
2023-01-11T03:12:26.967Z,98778.56
2023-01-11T03:15:12.417Z,98770.28
2023-01-11T03:18:00.417Z,98770.16
2023-01-11T03:20:45.948Z,98760.56
2023-01-11T03:23:12.318Z,98756.06
2023-01-11T03:25:48.080Z,98756.06
2023-01-11T03:28:36.309Z,98748.03
2023-01-11T03:31:18.311Z,98752.41
2023-01-11T03:33:48.802Z,98747.06
2023-01-11T03:36:32.663Z,98745.38
2023-01-11T03:39:44.744Z,98747.63
2023-01-11T03:42:15.593Z,98748.19
2023-01-11T03:44:51.807Z,98739.22
2023-01-11T03:47:22.232Z,98738.50
2023-01-11T03:49:58.885Z,98751.03
2023-01-11T03:52:31.726Z,98747.66
2023-01-11T03:54:59.305Z,98739.06
2023-01-11T03:57:39.505Z,98740.91
2023-01-11T04:00:08.159Z,98745.97
2023-01-11T04:02:39.267Z,98737.69
2023-01-11T04:05:07.210Z,98731.59
2023-01-11T04:07:33.878Z,98733.88
2023-01-11T04:10:00.361Z,98728.50
2023-01-11T04:12:27.420Z,98725.41
2023-01-11T04:14:53.976Z,98718.34
2023-01-11T04:17:20.453Z,98712.03
2023-01-11T04:19:46.896Z,98718.19
2023-01-11T04:22:13.723Z,98707.50
2023-01-11T04:24:40.115Z,98705.09
2023-01-11T04:27:06.626Z,98702.84
2023-01-11T04:29:33.044Z,98700.56
2023-01-11T04:31:59.611Z,98700.44
2023-01-11T04:34:25.976Z,98689.59
2023-01-11T04:36:52.415Z,98705.34
2023-01-11T04:39:18.888Z,98705.50
2023-01-11T04:42:03.959Z,98693.66
2023-01-11T04:44:30.400Z,98702.09
2023-01-11T04:46:56.879Z,98690.97
2023-01-11T04:49:23.259Z,98692.66
2023-01-11T04:51:49.777Z,98712.22
2023-01-11T04:54:16.683Z,98704.06
2023-01-11T04:56:43.158Z,98695.75
2023-01-11T04:59:09.655Z,98691.22
2023-01-11T05:01:36.276Z,98703.63
2023-01-11T05:04:02.839Z,98706.00
2023-01-11T05:06:29.538Z,98703.63
2023-01-11T05:08:56.055Z,98693.75
2023-01-11T05:11:22.621Z,98698.41
2023-01-11T05:13:49.500Z,98702.75
2023-01-11T05:16:21.759Z,98698.56
2023-01-11T05:18:51.132Z,98701.38
2023-01-11T05:21:20.172Z,98698.56
2023-01-11T05:23:47.500Z,98703.06
2023-01-11T05:26:27.127Z,98695.03
2023-01-11T05:28:54.686Z,98697.00
2023-01-11T05:31:21.934Z,98694.34
2023-01-11T05:33:48.655Z,98689.31
2023-01-11T05:36:20.661Z,98691.97
2023-01-11T05:38:49.007Z,98698.03
2023-01-11T05:41:16.970Z,98696.72
2023-01-11T05:44:03.352Z,98692.66
2023-01-11T05:46:31.134Z,98686.91
2023-01-11T05:48:59.070Z,98678.84
2023-01-11T05:51:26.292Z,98676.47
2023-01-11T05:53:55.599Z,98677.16
2023-01-11T05:56:22.017Z,98677.19
2023-01-11T05:58:49.810Z,98669.16
2023-01-11T06:01:19.301Z,98673.81
2023-01-11T06:03:46.307Z,98664.09
2023-01-11T06:06:13.568Z,98666.47
2023-01-11T06:08:39.964Z,98666.75
2023-01-11T06:11:06.800Z,98676.31
2023-01-11T06:13:33.899Z,98668.00
2023-01-11T06:16:06.600Z,98674.34
2023-01-11T06:18:35.353Z,98671.34
2023-01-11T06:21:02.709Z,98673.63
2023-01-11T06:23:31.626Z,98664.19
2023-01-11T06:26:08.975Z,98662.22
2023-01-11T06:28:36.617Z,98664.78
2023-01-11T06:31:04.182Z,98655.16
2023-01-11T06:33:30.940Z,98655.91
2023-01-11T06:35:58.160Z,98655.75
2023-01-11T06:38:26.121Z,98657.44
2023-01-11T06:40:57.642Z,98662.22
2023-01-11T06:43:25.233Z,98659.97
2023-01-11T06:45:51.993Z,98655.84
2023-01-11T06:48:19.752Z,98665.88
2023-01-11T06:50:55.360Z,98668.69
2023-01-11T06:53:23.110Z,98660.50
2023-01-11T06:55:51.196Z,98659.97
2023-01-11T06:58:17.744Z,98670.22
2023-01-11T07:00:44.274Z,98678.66
2023-01-11T07:03:11.528Z,98676.28
2023-01-11T07:05:38.293Z,98674.00
2023-01-11T07:08:05.225Z,98671.47
2023-01-11T07:10:31.720Z,98677.66
2023-01-11T07:12:58.128Z,98673.47
2023-01-11T07:15:24.607Z,98679.63
2023-01-11T07:17:55.782Z,98684.69
2023-01-11T07:20:23.107Z,98687.22
2023-01-11T07:22:50.369Z,98684.69
2023-01-11T07:25:17.631Z,98688.06
2023-01-11T07:27:44.436Z,98690.31
2023-01-11T07:30:11.428Z,98701.28
2023-01-11T07:32:37.998Z,98718.47
2023-01-11T07:35:04.706Z,98706.78
2023-01-11T07:37:32.704Z,98711.84
2023-01-11T07:39:59.308Z,98696.63
2023-01-11T07:42:44.954Z,98707.47
2023-01-11T07:45:11.413Z,98710.00
2023-01-11T07:47:38.981Z,98709.19
2023-01-11T07:50:06.023Z,98706.22
2023-01-11T07:52:32.424Z,98714.53
2023-01-11T07:55:02.453Z,98724.63
2023-01-11T07:57:30.407Z,98730.28
2023-01-11T07:59:56.981Z,98733.25
2023-01-11T08:02:23.589Z,98731.69
2023-01-11T08:04:50.403Z,98729.44
2023-01-11T08:07:16.870Z,98736.75
2023-01-11T08:09:43.428Z,98741.97
2023-01-11T08:12:28.534Z,98746.22
2023-01-11T08:14:55.084Z,98746.78
2023-01-11T08:17:21.648Z,98750.00
2023-01-11T08:19:48.235Z,98757.59
2023-01-11T08:22:14.618Z,98765.47
2023-01-11T08:24:41.201Z,98752.97
2023-01-11T08:27:07.823Z,98766.06
2023-01-11T08:29:34.587Z,98769.41
2023-01-11T08:32:01.193Z,98778.84
2023-01-11T08:34:29.019Z,98782.06
2023-01-11T08:37:01.862Z,98782.06
2023-01-11T08:39:31.703Z,98782.34
2023-01-11T08:41:59.241Z,98782.00
2023-01-11T08:44:33.746Z,98786.09
2023-01-11T08:47:00.751Z,98793.13
2023-01-11T08:49:27.300Z,98794.81
2023-01-11T08:51:53.706Z,98796.91
2023-01-11T08:54:20.345Z,98796.91
2023-01-11T08:56:46.751Z,98806.47
2023-01-11T08:59:13.619Z,98821.00
2023-01-11T09:01:40.197Z,98811.69
2023-01-11T09:04:15.811Z,98818.28
2023-01-11T09:06:45.794Z,98829.53
2023-01-11T09:09:12.165Z,98831.38
2023-01-11T09:11:57.273Z,98837.16
2023-01-11T09:14:27.155Z,98845.03
2023-01-11T09:16:54.628Z,98850.00
2023-01-11T09:19:21.692Z,98852.94
2023-01-11T09:21:48.609Z,98850.94
2023-01-11T09:24:15.312Z,98848.66
2023-01-11T09:26:43.432Z,98833.63
2023-01-11T09:29:11.386Z,98835.91
2023-01-11T09:31:38.366Z,98844.31
2023-01-11T09:34:06.834Z,98845.84
2023-01-11T09:36:35.776Z,98836.84
2023-01-11T09:39:06.249Z,98842.34
2023-01-11T09:41:50.722Z,98841.25
2023-01-11T09:44:26.575Z,98843.63
2023-01-11T09:47:00.564Z,98838.56
2023-01-11T09:49:34.619Z,98839.84
2023-01-11T09:52:19.034Z,98840.69
2023-01-11T09:54:47.127Z,98832.66
2023-01-11T09:57:43.654Z,98826.78
2023-01-11T10:00:27.799Z,98830.81
2023-01-11T10:03:24.081Z,98825.06
2023-01-11T10:06:01.222Z,98820.28
2023-01-11T10:18:28.383Z,98819.44
2023-01-11T10:18:32.627Z,98814.34
2023-01-11T10:21:21.190Z,98830.94
2023-01-11T10:24:02.729Z,98835.44
2023-01-11T10:26:39.540Z,98840.22
2023-01-11T10:29:21.061Z,98851.56
2023-01-11T10:32:13.401Z,98846.34
2023-01-11T10:34:58.383Z,98862.56
2023-01-11T10:37:48.559Z,98880.31
2023-01-11T10:40:31.326Z,98887.47
2023-01-11T10:43:04.668Z,98888.00
2023-01-11T10:45:40.168Z,98892.84
2023-01-11T10:48:26.647Z,98897.63
2023-01-11T10:51:19.601Z,98901.00
2023-01-11T10:54:01.609Z,98920.63
2023-01-11T10:57:01.887Z,98915.66
2023-01-11T11:00:07.502Z,98903.00
2023-01-11T11:02:34.127Z,98901.53
2023-01-11T11:05:10.799Z,98909.31
2023-01-11T11:08:26.329Z,98898.59
2023-01-11T11:11:02.549Z,98908.59
2023-01-11T11:14:01.496Z,98899.66
2023-01-11T11:16:43.387Z,98898.78
2023-01-11T11:19:15.050Z,98900.88
2023-01-11T11:21:42.920Z,98900.88
2023-01-11T11:24:35.801Z,98902.16
2023-01-11T11:27:37.689Z,98889.22
2023-01-11T11:30:04.901Z,98894.84
2023-01-11T11:32:37.965Z,98893.41
2023-01-11T11:35:10.449Z,98899.38
2023-01-11T11:37:44.297Z,98899.78
2023-01-11T11:40:33.433Z,98905.44
2023-01-11T11:43:10.878Z,98907.28
2023-01-11T11:46:07.772Z,98909.88
2023-01-11T11:48:34.939Z,98908.63
2023-01-11T11:51:04.925Z,98903.94
2023-01-11T11:53:46.005Z,98907.94
2023-01-11T11:56:33.038Z,98926.97
2023-01-11T11:59:06.865Z,98910.59
2023-01-11T12:01:36.566Z,98924.81
2023-01-11T12:04:23.335Z,98909.59
2023-01-11T12:07:15.945Z,98907.22
2023-01-11T12:09:47.934Z,98902.16
2023-01-11T12:12:20.508Z,98907.41
2023-01-11T12:15:07.594Z,98902.31
2023-01-11T12:17:35.235Z,98910.22
2023-01-11T12:20:01.870Z,98908.78
2023-01-11T12:22:29.126Z,98902.88
2023-01-11T12:25:13.900Z,98899.03
2023-01-11T12:28:08.012Z,98895.13
2023-01-11T12:30:52.363Z,98902.06
2023-01-11T12:33:44.396Z,98910.78
2023-01-11T12:36:30.848Z,98901.22
2023-01-11T12:39:11.164Z,98896.69
2023-01-11T12:42:19.518Z,98904.91
2023-01-11T12:45:02.840Z,98901.41
2023-01-11T12:47:55.076Z,98908.47
2023-01-11T12:50:24.952Z,98909.75
2023-01-11T12:52:57.582Z,98925.09
2023-01-11T12:55:26.837Z,98937.94
2023-01-11T12:58:05.373Z,98940.31
2023-01-11T13:01:09.459Z,98941.97
2023-01-11T13:03:51.174Z,98943.97
2023-01-11T13:06:30.535Z,98941.97
2023-01-11T13:09:07.796Z,98942.88
2023-01-11T13:11:42.650Z,98946.66
2023-01-11T13:15:03.678Z,98932.44
2023-01-11T13:17:59.065Z,98937.09
2023-01-11T13:20:58.549Z,98939.34
2023-01-11T13:23:39.249Z,98929.78
2023-01-11T13:26:35.280Z,98937.41
2023-01-11T13:29:13.645Z,98947.53
2023-01-11T13:31:41.326Z,98955.72
2023-01-11T13:34:25.067Z,98949.09
2023-01-11T13:36:55.688Z,98951.09
2023-01-11T13:39:31.871Z,98951.22
2023-01-11T13:42:04.189Z,98955.28
2023-01-11T13:44:37.336Z,98963.06
2023-01-11T13:47:16.138Z,98957.59
2023-01-11T13:50:16.715Z,98964.91
2023-01-11T13:53:09.984Z,98959.25
2023-01-11T13:55:39.615Z,98971.09
2023-01-11T13:58:16.324Z,98985.47
2023-01-11T14:00:55.224Z,98979.41
2023-01-11T14:03:53.892Z,98968.97
2023-01-11T14:06:42.231Z,98983.47
2023-01-11T14:09:27.365Z,98980.13
2023-01-11T14:12:21.979Z,98980.38
2023-01-11T14:15:03.655Z,98980.53
2023-01-11T14:17:51.132Z,98983.63
2023-01-11T14:20:20.467Z,98980.38
2023-01-11T14:23:05.478Z,98996.47
2023-01-11T14:25:48.088Z,98987.44
2023-01-11T14:28:59.272Z,98999.81
2023-01-11T14:31:40.911Z,99005.13
2023-01-11T14:35:03.245Z,98987.69
2023-01-11T14:38:00.304Z,99009.06
2023-01-11T14:40:41.562Z,99016.38
2023-01-11T14:43:24.214Z,99036.50
2023-01-11T14:46:09.151Z,99029.38
2023-01-11T14:48:50.545Z,99035.25
2023-01-11T14:51:30.613Z,99025.41
2023-01-11T14:54:12.899Z,99024.28
2023-01-11T14:56:42.309Z,99023.41
2023-01-11T14:59:30.616Z,99033.66
2023-01-11T15:02:02.972Z,99034.91
2023-01-11T15:04:43.832Z,99034.75
2023-01-11T15:07:23.718Z,99032.31
2023-01-11T15:09:53.467Z,99027.78
2023-01-11T15:12:22.769Z,99040.03
2023-01-11T15:15:12.277Z,99039.59
2023-01-11T15:17:58.716Z,99045.28
2023-01-11T15:20:26.719Z,99046.25
2023-01-11T15:23:01.935Z,99046.06
2023-01-11T15:25:33.728Z,99048.75
2023-01-11T15:28:43.119Z,99044.53
2023-01-11T15:31:34.095Z,99050.09
2023-01-11T15:34:17.211Z,99045.91
2023-01-11T15:36:55.125Z,99052.03
2023-01-11T15:39:33.290Z,99053.16
2023-01-11T15:42:14.897Z,99050.22
2023-01-11T15:45:06.972Z,99050.22
2023-01-11T15:48:02.760Z,99059.72
2023-01-11T15:50:48.036Z,99058.56
2023-01-11T15:53:45.693Z,99060.03
2023-01-11T15:56:18.405Z,99070.00
2023-01-11T15:59:30.142Z,99078.38
2023-01-11T16:02:15.504Z,99096.00
2023-01-11T16:05:17.325Z,99095.31
2023-01-11T16:07:56.097Z,99107.88
2023-01-11T16:10:42.463Z,99101.13
2023-01-11T16:13:23.987Z,99105.03
2023-01-11T16:16:15.395Z,99107.69
2023-01-11T16:18:56.051Z,99114.72
2023-01-11T16:21:35.932Z,99116.28
2023-01-11T16:24:05.843Z,99126.25
2023-01-11T16:26:35.610Z,99128.03
2023-01-11T16:29:11.833Z,99131.47
2023-01-11T16:31:56.272Z,99130.53
2023-01-11T16:34:23.455Z,99131.59
2023-01-11T16:36:49.890Z,99123.25
2023-01-11T16:39:22.279Z,99126.03
2023-01-11T16:41:59.377Z,99130.03
2023-01-11T16:44:44.823Z,99130.75
2023-01-11T16:47:16.986Z,99140.94
2023-01-11T16:49:48.924Z,99129.28
2023-01-11T16:52:27.586Z,99135.84
2023-01-11T16:54:56.157Z,99128.34
2023-01-11T16:57:29.987Z,99139.13
2023-01-11T17:00:01.873Z,99140.47
2023-01-11T17:02:38.657Z,99134.91
2023-01-11T17:05:25.500Z,99134.16
2023-01-11T17:07:51.890Z,99146.53
2023-01-11T17:10:28.624Z,99143.97
2023-01-11T17:13:36.660Z,99158.38
2023-01-11T17:16:13.675Z,99161.78
2023-01-11T17:18:41.831Z,99172.06
2023-01-11T17:21:26.564Z,99184.78
2023-01-11T17:24:00.517Z,99186.97
2023-01-11T17:26:41.277Z,99194.47
2023-01-11T17:29:08.403Z,99200.31
2023-01-11T17:31:36.784Z,99204.91
2023-01-11T17:34:18.984Z,99207.72
2023-01-11T17:36:47.552Z,99211.00
2023-01-11T17:39:29.796Z,99218.78
2023-01-11T17:42:16.576Z,99209.41
2023-01-11T17:45:03.664Z,99219.13
2023-01-11T17:47:31.178Z,99216.94
2023-01-11T17:50:00.344Z,99227.00
2023-01-11T17:52:29.462Z,99216.44
2023-01-11T17:55:16.958Z,99230.16
2023-01-11T17:57:44.185Z,99227.88
2023-01-11T18:00:28.669Z,99226.16
2023-01-11T18:02:55.825Z,99234.41
2023-01-11T18:05:27.179Z,99227.00
2023-01-11T18:07:57.479Z,99237.94
2023-01-11T18:10:27.254Z,99237.19
2023-01-11T18:12:56.175Z,99236.00
2023-01-11T18:15:30.931Z,99238.41
2023-01-11T18:17:58.282Z,99235.75
2023-01-11T18:20:24.750Z,99239.00
2023-01-11T18:22:54.276Z,99240.56
2023-01-11T18:25:23.842Z,99247.63
2023-01-11T18:27:51.053Z,99243.25
2023-01-11T18:30:32.574Z,99241.66
2023-01-11T18:33:03.913Z,99235.72
2023-01-11T18:35:30.976Z,99249.31
2023-01-11T18:37:57.515Z,99245.88
2023-01-11T18:40:23.952Z,99245.38
2023-01-11T18:42:52.521Z,99243.72
2023-01-11T18:45:20.202Z,99241.53
2023-01-11T18:47:46.700Z,99244.56
2023-01-11T18:50:13.501Z,99239.56
2023-01-11T18:52:39.993Z,99243.94
2023-01-11T18:55:06.668Z,99242.22
2023-01-11T18:57:33.159Z,99238.56
2023-01-11T18:59:59.678Z,99231.06
2023-01-11T19:02:28.942Z,99232.06
2023-01-11T19:04:56.971Z,99228.56
2023-01-11T19:07:25.466Z,99233.75
2023-01-11T19:09:54.631Z,99246.59
2023-01-11T19:12:21.157Z,99236.31
2023-01-11T19:14:47.632Z,99229.53
2023-01-11T19:17:14.217Z,99234.63
2023-01-11T19:19:40.912Z,99233.91
2023-01-11T19:22:07.690Z,99237.53
2023-01-11T19:24:34.282Z,99229.88
2023-01-11T19:27:00.859Z,99240.06
2023-01-11T19:29:27.781Z,99233.06
2023-01-11T19:31:55.610Z,99231.34
2023-01-11T19:34:23.391Z,99230.72
2023-01-11T19:36:51.696Z,99213.91
2023-01-11T19:39:18.476Z,99222.63
2023-01-11T19:41:54.025Z,99211.72
2023-01-11T19:44:40.465Z,99208.34
2023-01-11T19:47:13.377Z,99201.31
2023-01-11T19:49:41.599Z,99202.63
2023-01-11T19:52:13.003Z,99209.75
2023-01-11T19:54:44.274Z,99199.38
2023-01-11T19:57:12.239Z,99195.09
2023-01-11T19:59:38.847Z,99188.81
2023-01-11T20:02:05.398Z,99181.44
2023-01-11T20:04:32.312Z,99175.38
2023-01-11T20:06:58.978Z,99171.22
2023-01-11T20:09:25.441Z,99161.78
2023-01-11T20:11:53.172Z,99162.13
2023-01-11T20:14:20.033Z,99161.50
2023-01-11T20:16:46.484Z,99163.59
2023-01-11T20:19:13.258Z,99154.97
2023-01-11T20:21:39.816Z,99164.56
2023-01-11T20:24:06.644Z,99172.63
2023-01-11T20:26:34.045Z,99177.84
2023-01-11T20:29:01.596Z,99180.63
2023-01-11T20:31:31.454Z,99179.19
2023-01-11T20:33:59.638Z,99177.13
2023-01-11T20:36:26.733Z,99181.13
2023-01-11T20:38:54.162Z,99192.50
2023-01-11T20:41:43.086Z,99194.09
2023-01-11T20:44:10.240Z,99190.78
2023-01-11T20:46:37.387Z,99186.94
2023-01-11T20:49:05.309Z,99186.59
2023-01-11T20:51:32.052Z,99181.13
2023-01-11T20:53:58.499Z,99175.78
2023-01-11T20:56:25.087Z,99181.59
2023-01-11T20:58:52.042Z,99183.94
2023-01-11T21:01:29.060Z,99179.69
2023-01-11T21:04:00.002Z,99178.59
2023-01-11T21:06:27.525Z,99183.50
2023-01-11T21:08:58.266Z,99177.06
2023-01-11T21:11:25.227Z,99179.97
2023-01-11T21:13:53.403Z,99171.50
2023-01-11T21:16:22.512Z,99171.22
2023-01-11T21:18:58.129Z,99165.56
2023-01-11T21:21:25.755Z,99147.22
2023-01-11T21:23:57.312Z,99158.06
2023-01-11T21:26:25.527Z,99162.06
2023-01-11T21:28:55.462Z,99153.69
2023-01-11T21:31:22.687Z,99148.84
2023-01-11T21:33:49.545Z,99144.84
2023-01-11T21:36:19.526Z,99137.84
2023-01-11T21:38:46.416Z,99135.66
2023-01-11T21:41:44.092Z,99137.09
2023-01-11T21:44:12.578Z,99151.84
2023-01-11T21:46:40.076Z,99145.56
2023-01-11T21:49:07.043Z,99148.81
2023-01-11T21:51:34.391Z,99149.31
2023-01-11T21:54:07.435Z,99140.66
2023-01-11T21:56:34.988Z,99142.50
2023-01-11T21:59:01.557Z,99140.66
2023-01-11T22:01:28.800Z,99121.56
2023-01-11T22:03:55.547Z,99127.38
2023-01-11T22:06:22.199Z,99124.34
2023-01-11T22:08:48.696Z,99123.97
2023-01-11T22:11:17.018Z,99123.44
2023-01-11T22:13:43.751Z,99120.03
2023-01-11T22:16:16.750Z,99107.53
2023-01-11T22:18:44.211Z,99111.47
2023-01-11T22:21:17.702Z,99107.84
2023-01-11T22:23:46.046Z,99104.06
2023-01-11T22:26:18.008Z,99109.16
2023-01-11T22:29:04.759Z,99101.38
2023-01-11T22:31:32.658Z,99100.88
2023-01-11T22:34:00.303Z,99088.38
2023-01-11T22:36:28.371Z,99093.84
2023-01-11T22:38:55.204Z,99089.25
2023-01-11T22:41:22.244Z,99085.31
2023-01-11T22:43:49.442Z,99089.38
2023-01-11T22:46:18.538Z,99074.19
2023-01-11T22:48:46.908Z,99083.91
2023-01-11T22:51:13.849Z,99078.09
2023-01-11T22:53:42.195Z,99068.25
2023-01-11T22:56:10.269Z,99067.88
2023-01-11T22:58:37.116Z,99058.88
2023-01-11T23:01:10.836Z,99060.72
2023-01-11T23:03:38.137Z,99073.94
2023-01-11T23:06:04.894Z,99071.25
2023-01-11T23:08:35.657Z,99078.28
2023-01-11T23:11:02.103Z,99070.00
2023-01-11T23:13:47.167Z,99072.31
2023-01-11T23:16:15.027Z,99074.59
2023-01-11T23:18:41.546Z,99064.31
2023-01-11T23:21:08.341Z,99070.53
2023-01-11T23:23:34.768Z,99059.97
2023-01-11T23:26:01.300Z,99059.13
2023-01-11T23:28:29.794Z,99042.00
2023-01-11T23:30:56.345Z,99048.47
2023-01-11T23:33:22.770Z,99052.88
2023-01-11T23:35:59.180Z,99051.56
2023-01-11T23:38:26.041Z,99048.03
2023-01-11T23:41:10.909Z,99045.38
2023-01-11T23:43:38.827Z,99024.69
2023-01-11T23:46:24.183Z,99029.78
2023-01-11T23:48:50.785Z,99019.38
2023-01-11T23:51:17.315Z,99017.00
2023-01-11T23:53:43.783Z,99014.22
2023-01-11T23:56:10.187Z,99013.09
2023-01-11T23:58:36.625Z,99020.56
